Time;durP1;ratioP1;P1;durP2;ratioP2;P2;SDS_P1;SDS_P2;PMS_P1;PMS_P2;Temp;Humidity;BMP_temperature;BMP_pressure;BME280_temperature;BME280_humidity;BME280_pressure;Samples;Min_cycle;Max_cycle;Signal;HPM_P1;HPM_P2
2021/12/13 00:02:24;;;;;;;1.60;1.02;;;;;;;;;;5022615;28;20308;-67
2021/12/13 00:04:58;;;;;;;1.40;1.23;;;;;;;;;;5017989;28;20125;-67
2021/12/13 00:07:28;;;;;;;1.65;1.00;;;;;;;;;;5024406;28;20136;-67
2021/12/13 00:09:57;;;;;;;2.55;1.00;;;;;;;;;;5023952;28;20049;-67
2021/12/13 00:12:29;;;;;;;1.98;1.10;;;;;;;;;;5028339;28;20061;-67
2021/12/13 00:14:59;;;;;;;3.47;0.98;;;;;;;;;;5018492;28;20176;-67
2021/12/13 00:17:28;;;;;;;4.05;1.67;;;;;;;;;;5028351;28;20476;-67
2021/12/13 00:19:59;;;;;;;3.25;0.85;;;;;;;;;;5019095;28;20049;-67
2021/12/13 00:22:33;;;;;;;1.73;0.90;;;;;;;;;;5014573;28;20486;-67
2021/12/13 00:25:04;;;;;;;1.50;0.90;;;;;;;;;;5027110;28;20149;-68
2021/12/13 00:27:34;;;;;;;2.13;1.10;;;;;;;;;;5011239;28;20083;-67
2021/12/13 00:30:05;;;;;;;1.70;0.90;;;;;;;;;;5015846;28;20458;-68
2021/12/13 00:32:39;;;;;;;1.65;0.93;;;;;;;;;;5019389;28;20076;-68
2021/12/13 00:35:09;;;;;;;2.10;1.00;;;;;;;;;;5038302;28;20055;-68
2021/12/13 00:37:38;;;;;;;3.65;1.05;;;;;;;;;;5012587;28;20475;-68
2021/12/13 00:40:08;;;;;;;1.40;0.88;;;;;;;;;;5012876;28;20077;-68
2021/12/13 00:42:41;;;;;;;1.13;0.93;;;;;;;;;;5012753;28;20144;-68
2021/12/13 00:45:11;;;;;;;1.65;0.95;;;;;;;;;;5014187;28;20045;-68
2021/12/13 00:47:41;;;;;;;1.15;0.75;;;;;;;;;;5028422;28;20156;-68
2021/12/13 00:50:12;;;;;;;1.58;0.90;;;;;;;;;;5020079;28;20045;-68
2021/12/13 00:52:42;;;;;;;3.47;0.90;;;;;;;;;;5020108;28;20636;-68
2021/12/13 00:55:11;;;;;;;1.52;0.90;;;;;;;;;;5021377;28;20056;-68
2021/12/13 00:57:42;;;;;;;1.02;0.80;;;;;;;;;;5010762;28;20132;-68
2021/12/13 01:00:19;;;;;;;1.85;1.08;;;;;;;;;;5014589;28;20127;-68
2021/12/13 01:02:49;;;;;;;1.95;0.90;;;;;;;;;;5017515;28;20129;-68
2021/12/13 01:05:20;;;;;;;2.85;0.93;;;;;;;;;;5022819;28;20103;-68
2021/12/13 01:08:07;;;;;;;1.80;0.80;;;;;;;;;;5015099;28;20141;-68
2021/12/13 01:10:54;;;;;;;2.17;1.15;;;;;;;;;;5016423;28;20133;-68
2021/12/13 01:13:25;;;;;;;3.20;1.05;;;;;;;;;;5026037;28;20482;-68
2021/12/13 01:15:57;;;;;;;2.53;1.17;;;;;;;;;;5017369;28;20056;-68
2021/12/13 01:18:30;;;;;;;2.30;0.90;;;;;;;;;;5010134;28;20501;-68
2021/12/13 01:21:03;;;;;;;2.47;1.13;;;;;;;;;;5013687;28;20064;-68
2021/12/13 01:23:44;;;;;;;1.73;0.90;;;;;;;;;;5021546;28;20152;-68
2021/12/13 01:26:27;;;;;;;1.90;0.93;;;;;;;;;;5023936;28;20472;-68
2021/12/13 01:28:59;;;;;;;3.67;0.90;;;;;;;;;;5032065;28;20552;-68
2021/12/13 01:31:28;;;;;;;1.92;0.98;;;;;;;;;;5023744;28;20057;-68
2021/12/13 01:33:57;;;;;;;2.05;1.10;;;;;;;;;;5020110;28;20081;-68
2021/12/13 01:36:28;;;;;;;1.48;0.90;;;;;;;;;;5017393;28;20083;-68
2021/12/13 01:38:58;;;;;;;3.40;1.10;;;;;;;;;;5025275;28;20513;-68
2021/12/13 01:41:29;;;;;;;2.40;1.00;;;;;;;;;;5043939;28;20128;-68
2021/12/13 01:44:00;;;;;;;0.93;0.73;;;;;;;;;;5042836;28;20049;-67
2021/12/13 01:46:29;;;;;;;3.67;1.00;;;;;;;;;;5026034;28;20353;-68
2021/12/13 01:48:58;;;;;;;1.48;1.00;;;;;;;;;;5029669;28;20045;-68
2021/12/13 01:51:33;;;;;;;1.83;1.10;;;;;;;;;;5032273;28;20049;-68
2021/12/13 01:54:03;;;;;;;1.45;1.00;;;;;;;;;;5023919;28;20133;-67
2021/12/13 01:56:42;;;;;;;3.28;1.10;;;;;;;;;;5017814;28;20120;-68
2021/12/13 01:59:29;;;;;;;2.10;0.82;;;;;;;;;;5016094;28;20571;-67
2021/12/13 02:02:00;;;;;;;2.65;1.10;;;;;;;;;;5014395;28;20085;-68
2021/12/13 02:04:28;;;;;;;2.80;1.20;;;;;;;;;;5021571;28;20103;-67
2021/12/13 02:07:01;;;;;;;2.13;1.00;;;;;;;;;;5042884;28;20504;-68
2021/12/13 02:09:31;;;;;;;0.93;0.80;;;;;;;;;;5021240;28;20137;-67
2021/12/13 02:12:01;;;;;;;1.38;0.85;;;;;;;;;;5025304;28;20497;-68
2021/12/13 02:14:34;;;;;;;1.52;0.85;;;;;;;;;;5019991;28;20047;-68
2021/12/13 02:17:09;;;;;;;1.17;0.75;;;;;;;;;;5027964;28;20124;-68
2021/12/13 02:19:37;;;;;;;;;;;;;;;;;;5014272;28;20112;-68
2021/12/13 02:22:20;;;;;;;1.30;0.90;;;;;;;;;;5018511;28;20000;-68
2021/12/13 02:24:50;;;;;;;1.05;0.73;;;;;;;;;;5024135;28;20059;-68
2021/12/13 02:27:21;;;;;;;1.35;0.90;;;;;;;;;;5030637;28;20560;-68
2021/12/13 02:29:50;;;;;;;1.77;1.00;;;;;;;;;;5021441;28;20462;-68
2021/12/13 02:32:18;;;;;;;1.60;0.85;;;;;;;;;;5029962;28;20160;-68
2021/12/13 02:34:47;;;;;;;2.08;1.05;;;;;;;;;;5015438;28;20144;-68
2021/12/13 02:37:15;;;;;;;1.40;1.08;;;;;;;;;;5040046;28;20468;-68
2021/12/13 02:39:45;;;;;;;1.88;0.90;;;;;;;;;;5028443;28;20119;-67
2021/12/13 02:42:17;;;;;;;1.50;0.90;;;;;;;;;;5015832;28;20125;-67
2021/12/13 02:44:47;;;;;;;1.58;0.95;;;;;;;;;;5012218;28;20081;-68
2021/12/13 02:47:17;;;;;;;1.80;0.88;;;;;;;;;;5018462;28;20141;-68
2021/12/13 02:49:46;;;;;;;1.60;1.00;;;;;;;;;;5016836;28;20044;-68
2021/12/13 02:52:15;;;;;;;1.77;1.00;;;;;;;;;;5020941;28;20141;-68
2021/12/13 02:54:45;;;;;;;1.42;0.85;;;;;;;;;;5017445;28;20124;-68
2021/12/13 02:57:16;;;;;;;1.08;0.88;;;;;;;;;;5024151;28;20100;-68
2021/12/13 02:59:48;;;;;;;1.27;0.82;;;;;;;;;;5013557;28;20144;-68
2021/12/13 03:02:18;;;;;;;2.88;1.10;;;;;;;;;;5027625;28;20186;-68
2021/12/13 03:04:47;;;;;;;3.72;1.17;;;;;;;;;;5023003;28;20069;-67
2021/12/13 03:07:17;;;;;;;1.42;0.70;;;;;;;;;;5019218;28;20124;-67
2021/12/13 03:09:46;;;;;;;1.35;0.65;;;;;;;;;;5020580;28;20042;-67
2021/12/13 03:12:17;;;;;;;1.92;1.02;;;;;;;;;;5023063;28;20140;-67
2021/12/13 03:14:49;;;;;;;1.25;0.98;;;;;;;;;;5030711;28;20133;-67
2021/12/13 03:17:20;;;;;;;1.75;0.98;;;;;;;;;;5013389;28;20549;-67
2021/12/13 03:19:54;;;;;;;1.33;0.90;;;;;;;;;;5020948;28;20073;-67
2021/12/13 03:22:30;;;;;;;5.13;0.80;;;;;;;;;;5022682;28;20136;-67
2021/12/13 03:25:14;;;;;;;3.38;1.05;;;;;;;;;;5021646;28;20148;-68
2021/12/13 03:28:04;;;;;;;1.07;0.80;;;;;;;;;;5026288;28;20097;-68
2021/12/13 03:30:34;;;;;;;0.77;0.77;;;;;;;;;;5026385;28;20544;-68
2021/12/13 03:33:05;;;;;;;0.80;0.73;;;;;;;;;;5030055;28;20140;-68
2021/12/13 03:35:39;;;;;;;1.20;0.90;;;;;;;;;;5028004;28;20137;-68
2021/12/13 03:38:25;;;;;;;1.35;1.20;;;;;;;;;;3916879;28;10002084;-68
2021/12/13 03:40:54;;;;;;;0.95;0.68;;;;;;;;;;2419086;28;10002116;-68
2021/12/13 03:43:27;;;;;;;0.95;0.65;;;;;;;;;;5019679;28;20664;-68
2021/12/13 03:45:57;;;;;;;1.45;0.85;;;;;;;;;;5012586;28;20054;-68
2021/12/13 03:48:28;;;;;;;0.68;0.68;;;;;;;;;;5027825;28;20165;-68
2021/12/13 03:50:57;;;;;;;0.60;0.60;;;;;;;;;;5024501;28;20046;-68
2021/12/13 03:53:28;;;;;;;1.95;0.80;;;;;;;;;;5012207;28;20045;-68
2021/12/13 03:56:02;;;;;;;1.02;0.80;;;;;;;;;;5014223;28;20181;-68
2021/12/13 03:58:35;;;;;;;1.33;0.95;;;;;;;;;;5010932;28;20057;-68
2021/12/13 04:01:06;;;;;;;2.17;1.08;;;;;;;;;;5028759;28;20135;-68
2021/12/13 04:03:35;;;;;;;1.23;0.90;;;;;;;;;;5023335;28;20080;-68
2021/12/13 04:06:07;;;;;;;1.00;0.80;;;;;;;;;;5014612;28;20132;-68
2021/12/13 04:08:36;;;;;;;1.23;0.82;;;;;;;;;;5017913;28;20766;-68
2021/12/13 04:11:12;;;;;;;0.88;0.85;;;;;;;;;;5016450;28;20184;-68
2021/12/13 04:13:43;;;;;;;2.72;0.70;;;;;;;;;;5015847;28;20069;-68
2021/12/13 04:16:18;;;;;;;2.05;1.10;;;;;;;;;;5015626;28;20085;-68
2021/12/13 04:21:35;;;;;;;2.00;1.00;;;;;;;;;;5020158;28;19953;-68
2021/12/13 04:24:04;;;;;;;1.88;1.23;;;;;;;;;;5028355;28;20057;-68
2021/12/13 04:26:37;;;;;;;4.43;0.77;;;;;;;;;;5019291;28;20157;-68
2021/12/13 04:29:12;;;;;;;0.88;0.70;;;;;;;;;;5016474;28;20504;-68
2021/12/13 04:31:41;;;;;;;1.83;0.90;;;;;;;;;;5011337;28;20080;-68
2021/12/13 04:34:09;;;;;;;1.38;0.70;;;;;;;;;;5012899;28;20045;-68
2021/12/13 04:36:39;;;;;;;2.10;0.90;;;;;;;;;;5015754;28;20053;-68
2021/12/13 04:39:12;;;;;;;2.45;0.90;;;;;;;;;;5022292;28;20136;-68
2021/12/13 04:41:44;;;;;;;2.08;0.93;;;;;;;;;;5023084;28;20461;-68
2021/12/13 04:44:17;;;;;;;0.93;0.82;;;;;;;;;;5015970;28;20144;-68
2021/12/13 04:46:49;;;;;;;1.23;1.08;;;;;;;;;;5021999;28;20127;-68
2021/12/13 04:49:19;;;;;;;1.30;0.93;;;;;;;;;;5021793;28;20077;-68
2021/12/13 04:51:49;;;;;;;2.33;1.10;;;;;;;;;;5010701;28;20136;-68
2021/12/13 04:54:17;;;;;;;1.23;0.93;;;;;;;;;;5017710;28;20403;-68
2021/12/13 04:56:49;;;;;;;1.63;1.00;;;;;;;;;;5014874;28;20137;-68
2021/12/13 04:59:18;;;;;;;2.53;1.00;;;;;;;;;;5023067;28;20143;-68
2021/12/13 05:01:50;;;;;;;1.55;1.02;;;;;;;;;;5017105;28;20121;-68
2021/12/13 05:04:19;;;;;;;1.17;0.98;;;;;;;;;;5013550;28;20100;-68
2021/12/13 05:06:50;;;;;;;2.33;1.30;;;;;;;;;;5010110;28;20562;-68
2021/12/13 05:09:20;;;;;;;2.85;1.23;;;;;;;;;;5016276;28;20073;-67
2021/12/13 05:11:50;;;;;;;2.55;1.30;;;;;;;;;;5021184;28;20456;-68
2021/12/13 05:14:29;;;;;;;1.50;1.20;;;;;;;;;;5018287;28;20042;-68
2021/12/13 05:16:59;;;;;;;2.83;1.08;;;;;;;;;;5018300;28;20072;-68
2021/12/13 05:19:28;;;;;;;1.45;1.15;;;;;;;;;;5019288;28;20041;-68
2021/12/13 05:21:57;;;;;;;2.45;1.63;;;;;;;;;;5017932;28;20580;-68
2021/12/13 05:24:27;;;;;;;3.58;1.10;;;;;;;;;;5018974;28;20363;-68
2021/12/13 05:26:57;;;;;;;1.83;1.30;;;;;;;;;;5029843;28;20588;-68
2021/12/13 05:29:29;;;;;;;3.97;1.20;;;;;;;;;;5026691;28;20081;-68
2021/12/13 05:32:15;;;;;;;1.40;1.15;;;;;;;;;;5010212;28;20537;-68
2021/12/13 05:34:46;;;;;;;1.65;1.30;;;;;;;;;;5010845;28;20129;-68
2021/12/13 05:37:16;;;;;;;1.90;1.20;;;;;;;;;;5014813;28;20137;-68
2021/12/13 05:39:55;;;;;;;1.25;1.05;;;;;;;;;;5023076;28;20056;-68
2021/12/13 05:42:34;;;;;;;2.55;1.35;;;;;;;;;;5017974;28;20129;-68
2021/12/13 05:45:04;;;;;;;3.58;1.30;;;;;;;;;;5009741;28;20053;-68
2021/12/13 05:47:33;;;;;;;2.65;1.40;;;;;;;;;;5016840;28;20045;-68
2021/12/13 05:50:02;;;;;;;2.95;1.40;;;;;;;;;;5026694;28;20049;-68
2021/12/13 05:52:33;;;;;;;2.10;1.60;;;;;;;;;;5015952;28;20060;-67
2021/12/13 05:55:04;;;;;;;2.30;1.50;;;;;;;;;;5032041;28;20056;-68
2021/12/13 05:57:34;;;;;;;4.20;1.70;;;;;;;;;;5026327;28;20042;-67
2021/12/13 06:00:08;;;;;;;2.60;1.60;;;;;;;;;;5020777;28;20513;-67
2021/12/13 06:02:41;;;;;;;1.90;1.35;;;;;;;;;;5022993;28;20141;-67
2021/12/13 06:05:15;;;;;;;2.15;1.38;;;;;;;;;;5029052;28;20099;-68
2021/12/13 06:07:44;;;;;;;2.13;1.27;;;;;;;;;;5019239;28;20050;-67
2021/12/13 06:10:15;;;;;;;1.73;1.35;;;;;;;;;;5015181;28;20442;-67
2021/12/13 06:12:48;;;;;;;3.35;1.73;;;;;;;;;;5022380;28;20037;-68
2021/12/13 06:15:23;;;;;;;2.50;1.90;;;;;;;;;;5029733;28;20132;-67
2021/12/13 06:17:55;;;;;;;3.10;1.70;;;;;;;;;;5014025;28;20133;-67
2021/12/13 06:20:25;;;;;;;2.28;1.40;;;;;;;;;;5016462;28;20042;-67
2021/12/13 06:23:02;;;;;;;2.95;1.50;;;;;;;;;;5014886;28;20052;-67
2021/12/13 06:25:31;;;;;;;4.88;2.22;;;;;;;;;;5015680;28;20041;-67
2021/12/13 06:28:00;;;;;;;5.03;2.00;;;;;;;;;;5013345;28;20048;-67
2021/12/13 06:30:31;;;;;;;3.25;1.85;;;;;;;;;;5025683;28;20045;-67
2021/12/13 06:33:00;;;;;;;3.72;2.03;;;;;;;;;;5028736;28;20695;-67
2021/12/13 06:35:46;;;;;;;6.00;2.38;;;;;;;;;;5031155;28;20143;-67
2021/12/13 06:38:25;;;;;;;7.22;2.38;;;;;;;;;;5022776;28;20586;-67
2021/12/13 06:40:55;;;;;;;6.43;1.98;;;;;;;;;;5027526;28;20050;-67
2021/12/13 06:43:27;;;;;;;3.63;2.63;;;;;;;;;;5018111;28;20103;-67
2021/12/13 06:45:58;;;;;;;2.67;2.00;;;;;;;;;;5018912;28;20096;-67
2021/12/13 06:48:40;;;;;;;7.88;2.25;;;;;;;;;;5031570;28;20091;-67
2021/12/13 06:51:10;;;;;;;4.05;2.40;;;;;;;;;;5027113;28;20045;-67
2021/12/13 06:53:39;;;;;;;4.75;2.08;;;;;;;;;;5026781;28;20897;-67
2021/12/13 06:56:21;;;;;;;4.15;2.60;;;;;;;;;;5029591;28;20049;-67
2021/12/13 06:58:50;;;;;;;5.75;2.58;;;;;;;;;;5012861;28;20050;-67
2021/12/13 07:01:20;;;;;;;3.63;2.47;;;;;;;;;;5020345;28;20552;-67
2021/12/13 07:03:56;;;;;;;4.40;3.10;;;;;;;;;;5024509;28;20080;-67
2021/12/13 07:06:25;;;;;;;5.63;2.65;;;;;;;;;;5028424;28;20049;-67
2021/12/13 07:09:06;;;;;;;5.53;3.17;;;;;;;;;;5029036;28;20143;-67
2021/12/13 07:11:43;;;;;;;5.47;2.90;;;;;;;;;;5035499;28;20045;-67
2021/12/13 07:14:13;;;;;;;4.53;2.30;;;;;;;;;;5032376;28;20049;-67
2021/12/13 07:16:47;;;;;;;5.10;2.80;;;;;;;;;;5023632;28;20165;-67
2021/12/13 07:19:19;;;;;;;5.05;2.92;;;;;;;;;;5012895;28;20048;-67
2021/12/13 07:21:49;;;;;;;4.80;2.55;;;;;;;;;;5015720;28;20749;-67
2021/12/13 07:24:18;;;;;;;4.95;2.55;;;;;;;;;;5024613;28;20057;-67
2021/12/13 07:26:53;;;;;;;10.20;2.90;;;;;;;;;;5016212;28;20124;-67
2021/12/13 07:29:23;;;;;;;7.25;3.47;;;;;;;;;;5012768;28;20053;-67
2021/12/13 07:32:05;;;;;;;4.97;3.17;;;;;;;;;;5017343;28;20496;-67
2021/12/13 07:34:34;;;;;;;6.50;3.67;;;;;;;;;;5013325;28;20108;-67
2021/12/13 07:37:04;;;;;;;6.22;2.85;;;;;;;;;;5016353;28;20045;-67
2021/12/13 07:39:33;;;;;;;6.45;3.08;;;;;;;;;;5030285;28;20045;-67
2021/12/13 07:42:03;;;;;;;4.05;3.22;;;;;;;;;;5017235;28;20561;-67
2021/12/13 07:44:39;;;;;;;6.88;3.10;;;;;;;;;;5030687;28;20438;-67
2021/12/13 07:47:12;;;;;;;5.30;2.78;;;;;;;;;;5022831;28;20533;-67
2021/12/13 07:49:43;;;;;;;5.93;3.13;;;;;;;;;;5030232;28;20053;-67
2021/12/13 07:52:12;;;;;;;6.75;2.70;;;;;;;;;;5041811;28;20479;-67
2021/12/13 07:54:42;;;;;;;9.52;2.83;;;;;;;;;;5012597;28;20042;-67
2021/12/13 07:57:19;;;;;;;4.90;2.58;;;;;;;;;;5018064;28;20101;-67
2021/12/13 07:59:48;;;;;;;11.20;2.90;;;;;;;;;;5025205;28;20133;-67
2021/12/13 08:02:23;;;;;;;6.50;2.80;;;;;;;;;;5011090;28;20045;-67
2021/12/13 08:04:55;;;;;;;4.32;2.60;;;;;;;;;;5019355;28;20151;-67
2021/12/13 08:07:24;;;;;;;4.13;2.60;;;;;;;;;;5023011;28;20114;-67
2021/12/13 08:09:54;;;;;;;5.25;2.90;;;;;;;;;;5025219;28;20489;-67
2021/12/13 08:12:24;;;;;;;5.35;3.05;;;;;;;;;;5029603;28;20087;-67
2021/12/13 08:14:55;;;;;;;5.07;2.70;;;;;;;;;;5020234;28;20049;-67
2021/12/13 08:17:26;;;;;;;7.85;2.72;;;;;;;;;;5016173;28;20137;-67
2021/12/13 08:19:57;;;;;;;4.05;2.78;;;;;;;;;;5019946;28;20158;-67
2021/12/13 08:22:28;;;;;;;3.58;2.38;;;;;;;;;;5025898;28;20061;-67
2021/12/13 08:24:58;;;;;;;6.63;2.55;;;;;;;;;;5019981;28;20052;-67
2021/12/13 08:27:29;;;;;;;7.50;2.20;;;;;;;;;;5020175;28;20421;-67
2021/12/13 08:30:11;;;;;;;4.97;2.25;;;;;;;;;;5021679;28;20103;-68
2021/12/13 08:32:54;;;;;;;4.72;2.58;;;;;;;;;;5014596;28;20129;-67
2021/12/13 08:35:28;;;;;;;5.15;2.95;;;;;;;;;;5013219;28;20050;-67
2021/12/13 08:37:58;;;;;;;4.07;2.55;;;;;;;;;;5016580;28;20090;-67
2021/12/13 08:40:29;;;;;;;4.82;2.60;;;;;;;;;;5024238;28;20103;-67
2021/12/13 08:42:59;;;;;;;5.97;3.03;;;;;;;;;;5012746;28;20099;-67
2021/12/13 08:45:31;;;;;;;5.40;2.88;;;;;;;;;;5010065;28;20050;-66
2021/12/13 08:48:04;;;;;;;6.90;3.00;;;;;;;;;;5013877;28;20054;-67
2021/12/13 08:50:34;;;;;;;5.68;2.40;;;;;;;;;;5014108;28;20053;-67
2021/12/13 08:53:05;;;;;;;5.47;2.97;;;;;;;;;;5010417;28;20120;-67
2021/12/13 08:55:35;;;;;;;5.07;3.17;;;;;;;;;;5012914;28;20045;-66
2021/12/13 08:58:12;;;;;;;7.18;3.13;;;;;;;;;;5020283;28;20095;-67
2021/12/13 09:00:53;;;;;;;8.15;3.65;;;;;;;;;;5010554;28;20053;-67
2021/12/13 09:03:29;;;;;;;6.53;2.83;;;;;;;;;;5025877;28;20048;-67
2021/12/13 09:06:05;;;;;;;6.32;3.28;;;;;;;;;;5027209;28;20042;-67
2021/12/13 09:08:35;;;;;;;10.63;3.10;;;;;;;;;;5016344;28;20096;-68
2021/12/13 09:11:16;;;;;;;6.82;3.17;;;;;;;;;;5009304;28;20133;-68
2021/12/13 09:13:49;;;;;;;7.32;3.65;;;;;;;;;;5024520;28;20099;-67
2021/12/13 09:16:20;;;;;;;5.35;3.03;;;;;;;;;;5025167;28;20041;-67
2021/12/13 09:19:07;;;;;;;9.02;3.15;;;;;;;;;;5021546;28;20060;-68
2021/12/13 09:21:45;;;;;;;5.05;2.90;;;;;;;;;;5023745;28;20476;-68
2021/12/13 09:24:23;;;;;;;6.38;2.65;;;;;;;;;;5024467;28;20067;-68
2021/12/13 09:26:52;;;;;;;6.97;3.13;;;;;;;;;;5019502;28;20041;-68
2021/12/13 09:29:20;;;;;;;9.55;3.58;;;;;;;;;;5024250;28;20042;-68
2021/12/13 09:31:52;;;;;;;8.07;2.85;;;;;;;;;;5023522;28;20073;-67
2021/12/13 09:34:23;;;;;;;6.15;3.08;;;;;;;;;;5020663;28;20135;-67
2021/12/13 09:36:53;;;;;;;7.63;3.42;;;;;;;;;;5026713;28;20049;-67
2021/12/13 09:39:23;;;;;;;7.82;3.35;;;;;;;;;;5024997;28;20457;-68
2021/12/13 09:41:57;;;;;;;8.15;3.50;;;;;;;;;;5022028;28;20049;-67
2021/12/13 09:44:31;;;;;;;5.78;3.15;;;;;;;;;;5021728;28;20482;-67
2021/12/13 09:47:02;;;;;;;7.00;3.22;;;;;;;;;;5012973;28;20058;-67
2021/12/13 09:49:34;;;;;;;8.00;3.70;;;;;;;;;;5021486;28;20140;-68
2021/12/13 09:52:05;;;;;;;9.93;3.20;;;;;;;;;;5027384;28;20374;-67
2021/12/13 09:54:37;;;;;;;6.65;3.10;;;;;;;;;;5020633;28;20046;-67
2021/12/13 09:57:08;;;;;;;9.30;3.25;;;;;;;;;;5024540;28;20103;-67
2021/12/13 09:59:57;;;;;;;7.47;3.60;;;;;;;;;;5023860;28;20582;-67
2021/12/13 10:02:33;;;;;;;8.50;3.22;;;;;;;;;;5024761;28;20057;-67
2021/12/13 10:05:06;;;;;;;5.72;3.22;;;;;;;;;;5018277;28;20050;-67
2021/12/13 10:07:37;;;;;;;5.55;3.00;;;;;;;;;;5019849;28;20457;-67
2021/12/13 10:10:08;;;;;;;5.68;3.60;;;;;;;;;;5027002;28;20087;-67
2021/12/13 10:12:43;;;;;;;8.07;3.45;;;;;;;;;;5025587;28;20417;-67
2021/12/13 10:15:12;;;;;;;;;;;;;;;;;;5021832;28;20053;-67
2021/12/13 10:17:44;;;;;;;7.43;3.20;;;;;;;;;;5020615;28;19929;-68
2021/12/13 10:20:18;;;;;;;5.15;2.92;;;;;;;;;;5021051;28;20051;-67
2021/12/13 10:22:47;;;;;;;7.55;3.72;;;;;;;;;;5023967;28;20050;-67
2021/12/13 10:25:18;;;;;;;6.53;3.10;;;;;;;;;;5020258;28;20046;-67
2021/12/13 10:27:47;;;;;;;5.85;3.15;;;;;;;;;;5022037;28;20052;-67
2021/12/13 10:30:20;;;;;;;6.00;3.75;;;;;;;;;;5016115;28;20049;-67
2021/12/13 10:32:49;;;;;;;4.88;2.90;;;;;;;;;;5024594;28;20072;-67
2021/12/13 10:35:21;;;;;;;5.97;3.15;;;;;;;;;;5020005;28;20052;-67
2021/12/13 10:37:52;;;;;;;6.75;3.45;;;;;;;;;;5025751;28;20056;-67
2021/12/13 10:40:23;;;;;;;5.63;3.20;;;;;;;;;;5018751;28;20421;-68
2021/12/13 10:42:54;;;;;;;7.28;3.17;;;;;;;;;;5019712;28;20053;-67
2021/12/13 10:45:25;;;;;;;5.70;3.10;;;;;;;;;;5027929;28;20094;-67
2021/12/13 10:47:55;;;;;;;7.35;3.35;;;;;;;;;;5022451;28;20080;-67
2021/12/13 10:50:27;;;;;;;8.57;3.00;;;;;;;;;;5027742;28;20049;-67
2021/12/13 10:52:58;;;;;;;6.85;3.22;;;;;;;;;;5024189;28;20906;-67
2021/12/13 10:55:28;;;;;;;9.35;3.58;;;;;;;;;;5029158;28;20381;-66
2021/12/13 10:57:57;;;;;;;9.45;4.03;;;;;;;;;;5019412;28;20430;-67
2021/12/13 11:00:30;;;;;;;6.40;3.72;;;;;;;;;;5027003;28;20115;-67
2021/12/13 11:03:01;;;;;;;9.07;3.70;;;;;;;;;;5017834;28;20072;-67
2021/12/13 11:05:31;;;;;;;6.53;3.80;;;;;;;;;;5015752;28;20045;-67
2021/12/13 11:08:01;;;;;;;5.90;3.67;;;;;;;;;;5028592;28;20296;-67
2021/12/13 11:10:31;;;;;;;5.40;3.20;;;;;;;;;;5023947;28;20053;-67
2021/12/13 11:13:21;;;;;;;5.85;3.42;;;;;;;;;;5021034;28;20105;-67
2021/12/13 11:15:52;;;;;;;7.22;3.65;;;;;;;;;;5023478;28;20132;-67
2021/12/13 11:18:27;;;;;;;5.68;3.20;;;;;;;;;;5021084;28;20084;-67
2021/12/13 11:20:56;;;;;;;;;;;;;;;;;;5022023;28;20458;-67
2021/12/13 11:23:26;;;;;;;8.52;3.80;;;;;;;;;;5015347;28;19975;-67
2021/12/13 11:25:57;;;;;;;6.63;3.05;;;;;;;;;;5015102;28;20133;-67
2021/12/13 11:28:26;;;;;;;5.68;2.88;;;;;;;;;;5025426;28;20134;-67
2021/12/13 11:30:55;;;;;;;5.88;2.90;;;;;;;;;;5025501;28;20044;-67
2021/12/13 11:33:50;;;;;;;5.82;2.58;;;;;;;;;;5033979;28;20084;-67
2021/12/13 11:36:19;;;;;;;;;;;;;;;;;;5026055;28;20103;-67
2021/12/13 11:39:02;;;;;;;7.47;3.17;;;;;;;;;;5020126;28;19926;-67
2021/12/13 11:41:38;;;;;;;5.03;2.72;;;;;;;;;;5023625;28;20069;-67
2021/12/13 11:44:13;;;;;;;4.85;2.67;;;;;;;;;;5022660;28;20096;-67
2021/12/13 11:47:12;;;;;;;5.80;2.95;;;;;;;;;;5017958;28;20153;-67
2021/12/13 11:50:04;;;;;;;4.70;2.60;;;;;;;;;;4978081;28;20097;-67
2021/12/13 11:53:03;;;;;;;4.88;2.50;;;;;;;;;;4954127;28;20124;-67
2021/12/13 11:55:49;;;;;;;4.45;2.40;;;;;;;;;;5017341;28;20482;-67
2021/12/13 11:58:38;;;;;;;5.22;2.75;;;;;;;;;;5015500;28;20408;-67
2021/12/13 12:01:26;;;;;;;5.63;2.90;;;;;;;;;;5001237;28;20577;-67
2021/12/13 12:04:36;;;;;;;5.35;2.67;;;;;;;;;;4994732;28;20056;-67
2021/12/13 12:07:23;;;;;;;3.90;2.28;;;;;;;;;;5015964;28;20505;-67
2021/12/13 12:10:05;;;;;;;4.50;2.65;;;;;;;;;;5021494;28;20154;-67
2021/12/13 12:12:52;;;;;;;6.70;3.38;;;;;;;;;;5014442;28;20059;-67
2021/12/13 12:15:21;;;;;;;7.72;3.70;;;;;;;;;;5017129;28;20069;-67
2021/12/13 12:17:51;;;;;;;5.88;3.35;;;;;;;;;;5007984;28;20045;-67
2021/12/13 12:20:22;;;;;;;9.07;3.70;;;;;;;;;;5022117;28;20045;-67
2021/12/13 12:22:54;;;;;;;11.38;4.30;;;;;;;;;;4984856;28;20110;-68
2021/12/13 12:25:25;;;;;;;9.88;4.63;;;;;;;;;;5025654;28;20144;-67
2021/12/13 12:27:57;;;;;;;8.75;4.57;;;;;;;;;;5014111;28;20143;-67
2021/12/13 12:30:28;;;;;;;8.43;4.05;;;;;;;;;;5021336;28;20509;-67
2021/12/13 12:32:58;;;;;;;8.27;4.65;;;;;;;;;;5021105;28;20041;-67
2021/12/13 12:35:29;;;;;;;8.02;4.35;;;;;;;;;;5019401;28;20157;-67
2021/12/13 12:38:22;;;;;;;9.13;4.75;;;;;;;;;;5015072;28;20095;-67
2021/12/13 12:40:59;;;;;;;8.82;4.60;;;;;;;;;;5019640;28;20057;-67
2021/12/13 12:43:30;;;;;;;7.80;4.20;;;;;;;;;;5015352;28;20075;-67
2021/12/13 12:46:00;;;;;;;9.23;4.95;;;;;;;;;;5017933;28;20053;-67
2021/12/13 12:48:31;;;;;;;8.88;4.63;;;;;;;;;;5018982;28;20488;-67
2021/12/13 12:51:05;;;;;;;8.65;4.88;;;;;;;;;;5018400;28;20054;-67
2021/12/13 12:53:43;;;;;;;9.13;4.80;;;;;;;;;;5021293;28;20464;-67
2021/12/13 12:56:14;;;;;;;8.30;5.00;;;;;;;;;;5020666;28;20054;-68
2021/12/13 12:58:47;;;;;;;8.80;4.70;;;;;;;;;;5021566;28;20140;-68
2021/12/13 13:01:19;;;;;;;10.10;5.15;;;;;;;;;;5014323;28;20053;-67
2021/12/13 13:03:48;;;;;;;11.23;4.78;;;;;;;;;;5018002;28;20396;-68
2021/12/13 13:06:20;;;;;;;8.98;4.72;;;;;;;;;;5024148;28;20053;-67
2021/12/13 13:08:52;;;;;;;8.88;4.63;;;;;;;;;;5016096;28;20049;-67
2021/12/13 13:11:29;;;;;;;8.73;4.50;;;;;;;;;;5015810;28;20880;-68
2021/12/13 13:14:01;;;;;;;10.32;4.75;;;;;;;;;;5019844;28;20168;-68
2021/12/13 13:16:31;;;;;;;9.07;4.32;;;;;;;;;;5018513;28;20041;-72
2021/12/13 13:19:01;;;;;;;6.85;4.47;;;;;;;;;;5013114;28;20045;-72
2021/12/13 13:21:30;;;;;;;8.23;4.75;;;;;;;;;;5020666;28;20042;-70
2021/12/13 13:24:01;;;;;;;11.55;5.32;;;;;;;;;;5007359;28;20479;-70
2021/12/13 13:26:30;;;;;;;7.78;4.57;;;;;;;;;;4996810;28;20062;-70
2021/12/13 13:29:03;;;;;;;10.27;5.03;;;;;;;;;;5003254;28;20088;-70
2021/12/13 13:31:35;;;;;;;9.48;4.72;;;;;;;;;;5002586;28;20052;-70
2021/12/13 13:34:06;;;;;;;9.23;5.18;;;;;;;;;;5001056;28;20046;-70
2021/12/13 13:36:37;;;;;;;10.00;4.28;;;;;;;;;;5003364;28;20050;-70
2021/12/13 13:39:15;;;;;;;9.18;4.82;;;;;;;;;;5000843;28;20053;-70
2021/12/13 13:41:45;;;;;;;9.02;4.63;;;;;;;;;;4996740;28;20129;-69
2021/12/13 13:44:16;;;;;;;7.65;4.47;;;;;;;;;;5004862;28;20076;-70
2021/12/13 13:46:45;;;;;;;9.20;4.47;;;;;;;;;;5001921;28;20128;-69
2021/12/13 13:49:17;;;;;;;10.10;4.85;;;;;;;;;;5001920;28;20053;-69
2021/12/13 13:51:46;;;;;;;9.88;4.20;;;;;;;;;;5008020;28;20064;-69
2021/12/13 13:54:16;;;;;;;9.60;4.03;;;;;;;;;;5002359;28;20116;-70
2021/12/13 13:56:47;;;;;;;9.27;3.72;;;;;;;;;;5008222;28;20058;-69
2021/12/13 13:59:17;;;;;;;7.07;4.20;;;;;;;;;;5003820;28;20050;-68
2021/12/13 14:01:48;;;;;;;10.02;4.22;;;;;;;;;;4999886;28;20038;-69
2021/12/13 14:04:19;;;;;;;10.48;4.55;;;;;;;;;;5011048;28;20569;-69
2021/12/13 14:06:50;;;;;;;7.55;3.88;;;;;;;;;;5010590;28;20057;-69
2021/12/13 14:09:22;;;;;;;8.05;4.13;;;;;;;;;;5004413;28;20046;-69
2021/12/13 14:11:52;;;;;;;5.72;2.30;;;;;;;;;;5012367;28;20140;-69
2021/12/13 14:14:21;;;;;;;4.15;1.95;;;;;;;;;;5001727;28;20057;-69
2021/12/13 14:16:53;;;;;;;6.45;3.70;;;;;;;;;;5009374;28;20115;-69
2021/12/13 14:19:32;;;;;;;10.45;4.40;;;;;;;;;;5004570;28;20061;-69
2021/12/13 14:22:01;;;;;;;8.50;4.15;;;;;;;;;;5008119;28;20046;-69
2021/12/13 14:24:36;;;;;;;9.70;4.22;;;;;;;;;;5006737;28;20553;-69
2021/12/13 14:27:14;;;;;;;6.57;3.83;;;;;;;;;;5004481;28;20555;-69
2021/12/13 14:29:43;;;;;;;10.80;4.55;;;;;;;;;;5011437;28;20127;-69
2021/12/13 14:32:13;;;;;;;8.52;4.20;;;;;;;;;;5004957;28;20141;-70
2021/12/13 14:34:42;;;;;;;7.85;4.15;;;;;;;;;;5007299;28;20125;-69
2021/12/13 14:37:13;;;;;;;7.82;4.22;;;;;;;;;;5009297;28;20044;-69
2021/12/13 14:39:45;;;;;;;7.00;3.67;;;;;;;;;;5003830;28;20117;-69
2021/12/13 14:42:16;;;;;;;8.65;4.15;;;;;;;;;;5011229;28;20129;-69
2021/12/13 14:44:46;;;;;;;7.72;4.32;;;;;;;;;;5002075;28;20050;-70
2021/12/13 14:47:16;;;;;;;8.32;3.90;;;;;;;;;;5002222;28;20049;-69
2021/12/13 14:49:46;;;;;;;6.50;3.50;;;;;;;;;;5008590;28;20487;-69
2021/12/13 14:52:17;;;;;;;9.70;4.60;;;;;;;;;;5010052;28;20061;-69
2021/12/13 14:54:49;;;;;;;10.98;4.97;;;;;;;;;;5001554;28;20046;-69
2021/12/13 14:57:19;;;;;;;8.63;4.45;;;;;;;;;;4997205;28;20053;-69
2021/12/13 14:59:49;;;;;;;10.18;4.78;;;;;;;;;;5005750;28;20100;-69
2021/12/13 15:02:19;;;;;;;9.45;4.68;;;;;;;;;;5004914;28;20042;-69
2021/12/13 15:04:48;;;;;;;9.77;4.68;;;;;;;;;;5008949;28;20042;-69
2021/12/13 15:07:19;;;;;;;9.35;4.70;;;;;;;;;;5005564;28;20054;-69
2021/12/13 15:09:50;;;;;;;13.00;5.32;;;;;;;;;;4999688;28;20046;-69
2021/12/13 15:12:22;;;;;;;9.85;4.95;;;;;;;;;;5012488;28;20203;-69
2021/12/13 15:14:56;;;;;;;10.02;4.90;;;;;;;;;;4999304;28;20046;-69
2021/12/13 15:17:27;;;;;;;9.55;4.15;;;;;;;;;;5000124;28;20124;-69
2021/12/13 15:19:58;;;;;;;6.55;3.70;;;;;;;;;;5010187;28;20057;-69